Time;durP1;ratioP1;P1;durP2;ratioP2;P2;SDS_P1;SDS_P2;PMS_P1;PMS_P2;Temp;Humidity;BMP_temperature;BMP_pressure;BME280_temperature;BME280_humidity;BME280_pressure;Samples;Min_cycle;Max_cycle;Signal;HPM_P1;HPM_P2
2022/08/10 00:01:19;;;;;;;1.27;1.00;;;21.10;55.30;21.50;97227.00;;;;5095014;28;20286;-87
2022/08/10 00:03:46;;;;;;;0.87;0.87;;;21.10;55.40;21.40;97229.00;;;;5114022;28;20199;-87
2022/08/10 00:06:13;;;;;;;1.23;1.13;;;21.10;55.50;21.40;97231.00;;;;5113431;28;20699;-87
2022/08/10 00:08:41;;;;;;;0.90;0.90;;;21.00;55.50;21.40;97232.00;;;;5115863;28;20234;-87
2022/08/10 00:11:08;;;;;;;2.00;0.97;;;21.00;55.60;21.40;97224.00;;;;5114237;28;20739;-87
2022/08/10 00:13:37;;;;;;;2.33;0.93;;;21.00;55.70;21.40;97227.00;;;;5111046;27;20242;-87
2022/08/10 00:16:05;;;;;;;5.33;1.23;;;21.00;55.80;21.30;97226.00;;;;5102384;28;20267;-87
2022/08/10 00:18:33;;;;;;;0.80;0.80;;;20.90;55.80;21.30;97229.00;;;;5115872;28;20281;-87
2022/08/10 00:21:00;;;;;;;2.57;1.30;;;20.90;55.80;21.30;97223.00;;;;5112379;28;20222;-86
2022/08/10 00:23:27;;;;;;;1.27;1.00;;;20.90;55.90;21.30;97220.00;;;;5109888;28;20223;-87
2022/08/10 00:25:54;;;;;;;1.00;1.00;;;20.80;55.80;21.20;97220.00;;;;5114660;28;20627;-86
2022/08/10 00:28:22;;;;;;;1.17;1.00;;;20.80;55.90;21.20;97217.00;;;;5115414;28;20199;-87
2022/08/10 00:30:50;;;;;;;1.57;0.90;;;20.80;55.90;21.20;97215.00;;;;5108956;28;20309;-87
2022/08/10 00:33:17;;;;;;;0.90;0.90;;;20.80;56.00;21.20;97212.00;;;;5106539;28;20187;-86
2022/08/10 00:35:45;;;;;;;1.00;1.00;;;20.80;56.00;21.10;97216.00;;;;5114316;28;20240;-87
2022/08/10 00:38:12;;;;;;;1.00;0.90;;;20.80;56.00;21.10;97220.00;;;;5112679;28;20277;-87
2022/08/10 00:40:39;;;;;;;0.90;0.90;;;20.70;56.00;21.10;97217.00;;;;5109624;28;20616;-87
2022/08/10 00:43:07;;;;;;;1.23;0.80;;;20.70;56.00;21.10;97217.00;;;;5111991;28;20249;-87
2022/08/10 00:45:34;;;;;;;1.03;0.83;;;20.70;56.10;21.10;97216.00;;;;5114631;28;20195;-87
2022/08/10 00:48:03;;;;;;;0.83;0.80;;;20.70;56.10;21.10;97219.00;;;;5114667;28;20249;-87
2022/08/10 00:50:31;;;;;;;0.77;0.77;;;20.70;56.10;21.10;97213.00;;;;5109159;28;20723;-86
2022/08/10 00:52:59;;;;;;;1.00;0.97;;;20.70;56.00;21.10;97212.00;;;;5114601;28;20226;-87
2022/08/10 00:55:27;;;;;;;1.00;0.80;;;20.70;56.00;21.10;97207.00;;;;5113568;28;20732;-87
2022/08/10 00:57:55;;;;;;;1.47;1.10;;;20.70;56.00;21.10;97210.00;;;;5107330;28;20293;-87
2022/08/10 01:00:23;;;;;;;1.40;1.30;;;20.70;56.00;21.10;97213.00;;;;5114058;28;20203;-88
2022/08/10 01:02:50;;;;;;;1.53;0.90;;;20.70;56.00;21.10;97212.00;;;;5107961;27;20226;-85
2022/08/10 01:05:20;;;;;;;0.90;0.90;;;20.70;56.00;21.00;97212.00;;;;5114297;28;20222;-85
2022/08/10 01:08:10;;;;;;;2.17;1.00;;;20.60;56.00;21.00;97213.00;;;;5106553;28;20274;-86
2022/08/10 01:10:52;;;;;;;1.00;1.00;;;20.60;56.30;21.00;97220.00;;;;5110030;27;20210;-85
2022/08/10 01:13:32;;;;;;;2.37;1.30;;;20.60;56.60;21.00;97206.00;;;;5111596;27;20202;-86
2022/08/10 01:16:09;;;;;;;0.80;0.80;;;20.60;56.10;21.00;97215.00;;;;5106113;28;20274;-85
2022/08/10 01:18:47;;;;;;;0.70;0.70;;;20.60;56.10;20.90;97216.00;;;;5112977;28;20309;-86
2022/08/10 01:22:09;;;;;;;1.10;1.00;;;20.60;56.10;20.90;97216.00;;;;5113756;28;20224;-86
2022/08/10 01:25:28;;;;;;;1.07;1.07;;;20.60;56.20;20.90;97212.00;;;;5085495;28;20302;-85
2022/08/10 01:28:15;;;;;;;0.83;0.80;;;20.50;56.20;20.90;97215.00;;;;5046974;28;20324;-85
2022/08/10 01:30:49;;;;;;;1.07;0.97;;;20.50;56.10;20.90;97213.00;;;;5110822;28;20218;-85
2022/08/10 01:33:26;;;;;;;0.90;0.90;;;20.50;56.10;20.90;97204.00;;;;5114704;27;20637;-86
2022/08/10 01:35:59;;;;;;;1.37;1.10;;;20.50;56.20;20.90;97210.00;;;;5113090;28;20195;-85
2022/08/10 01:38:33;;;;;;;1.43;1.33;;;20.50;56.10;20.90;97206.00;;;;5113179;28;20720;-85
2022/08/10 01:41:08;;;;;;;1.50;1.40;;;20.50;56.20;20.80;97209.00;;;;5113275;28;20247;-86
2022/08/10 01:43:43;;;;;;;2.20;0.90;;;20.50;56.30;20.80;97210.00;;;;5113083;28;20282;-85
2022/08/10 01:46:15;;;;;;;1.00;1.00;;;20.40;56.20;20.80;97215.00;;;;5112925;28;20251;-84
2022/08/10 01:48:47;;;;;;;1.30;1.20;;;20.40;56.20;20.80;97210.00;;;;5113233;28;20282;-85
2022/08/10 01:51:23;;;;;;;1.07;1.07;;;20.40;56.20;20.80;97204.00;;;;5113428;28;20256;-85
2022/08/10 01:53:57;;;;;;;1.20;1.07;;;20.40;56.30;20.80;97211.00;;;;5112406;28;20224;-85
2022/08/10 01:56:30;;;;;;;1.40;1.30;;;20.40;56.40;20.70;97204.00;;;;5112473;28;20253;-85
2022/08/10 01:59:01;;;;;;;0.77;0.77;;;20.30;56.30;20.70;97206.00;;;;5108951;28;20230;-85
2022/08/10 02:01:35;;;;;;;1.30;0.93;;;20.30;56.40;20.70;97202.00;;;;5112662;27;20718;-85
2022/08/10 02:04:09;;;;;;;2.90;1.37;;;20.30;56.50;20.70;97199.00;;;;5113353;28;20296;-86
2022/08/10 02:06:42;;;;;;;0.90;0.90;;;20.30;56.50;20.60;97203.00;;;;5097034;28;20221;-85
2022/08/10 02:09:15;;;;;;;0.90;0.90;;;20.30;56.60;20.60;97193.00;;;;5113132;28;20218;-86
2022/08/10 02:11:43;;;;;;;1.00;1.00;;;20.30;56.50;20.60;97194.00;;;;5111777;28;20249;-87
2022/08/10 02:14:14;;;;;;;1.07;1.00;;;20.20;56.50;20.60;97203.00;;;;5111816;28;20214;-85
2022/08/10 02:16:47;;;;;;;1.40;1.10;;;20.20;56.60;20.60;97199.00;;;;5111435;28;20246;-85
2022/08/10 02:19:19;;;;;;;2.73;1.20;;;20.20;56.70;20.60;97196.00;;;;5111230;28;20267;-85
2022/08/10 02:21:51;;;;;;;1.23;1.13;;;20.20;56.70;20.50;97201.00;;;;5108861;27;20632;-85
2022/08/10 02:24:21;;;;;;;1.77;1.10;;;20.10;56.70;20.50;97195.00;;;;5101312;27;20218;-86
2022/08/10 02:26:50;;;;;;;1.10;1.10;;;20.10;56.80;20.50;97194.00;;;;5109552;28;20221;-85
2022/08/10 02:29:19;;;;;;;1.17;1.13;;;20.10;56.80;20.50;97194.00;;;;5111318;27;20230;-87
2022/08/10 02:31:48;;;;;;;1.10;1.10;;;20.10;56.90;20.50;97195.00;;;;5113036;27;20218;-86
2022/08/10 02:34:17;;;;;;;1.17;1.10;;;20.10;56.90;20.40;97194.00;;;;5105186;28;20286;-85
2022/08/10 02:36:50;;;;;;;0.97;0.97;;;20.10;56.90;20.40;97192.00;;;;5103232;28;20278;-85
2022/08/10 02:39:20;;;;;;;1.20;1.20;;;20.00;57.00;20.40;97193.00;;;;5109241;28;20222;-86
2022/08/10 02:41:56;;;;;;;1.00;1.00;;;20.00;57.00;20.40;97191.00;;;;5110543;28;20238;-85
2022/08/10 02:44:30;;;;;;;1.13;0.90;;;20.00;57.10;20.40;97189.00;;;;5106318;27;20218;-85
2022/08/10 02:47:15;;;;;;;1.00;1.00;;;20.00;57.20;20.30;97190.00;;;;5108606;28;20324;-85
2022/08/10 02:49:49;;;;;;;1.10;1.10;;;20.00;57.30;20.30;97198.00;;;;5110488;27;20295;-85
2022/08/10 02:52:24;;;;;;;0.90;0.90;;;19.90;57.10;20.30;97193.00;;;;5116255;27;20292;-85
2022/08/10 02:54:59;;;;;;;1.10;1.10;;;19.90;57.30;20.30;97193.00;;;;5104997;27;20605;-85
2022/08/10 02:57:36;;;;;;;1.03;0.93;;;19.90;57.40;20.30;97185.00;;;;5100595;27;20211;-85
2022/08/10 03:00:07;;;;;;;1.30;1.20;;;19.90;57.30;20.30;97189.00;;;;5107480;27;20186;-85
2022/08/10 03:02:44;;;;;;;2.03;1.37;;;19.90;57.40;20.20;97182.00;;;;5111715;27;20569;-85
2022/08/10 03:05:15;;;;;;;1.10;1.10;;;19.90;57.50;20.20;97185.00;;;;5113370;27;20190;-85
2022/08/10 03:07:50;;;;;;;2.10;1.30;;;19.80;57.40;20.20;97182.00;;;;5112633;28;20219;-85
2022/08/10 03:10:22;;;;;;;1.07;1.07;;;19.80;57.50;20.20;97182.00;;;;5094382;28;20231;-86
2022/08/10 03:12:56;;;;;;;1.37;1.27;;;19.80;57.60;20.20;97170.00;;;;5107912;28;20245;-86
2022/08/10 03:15:25;;;;;;;1.10;1.10;;;19.80;57.60;20.10;97175.00;;;;5107422;28;20226;-85
2022/08/10 03:17:56;;;;;;;1.50;1.40;;;19.80;57.70;20.10;97175.00;;;;5111718;28;20211;-86
2022/08/10 03:20:25;;;;;;;1.20;1.20;;;19.70;57.70;20.10;97179.00;;;;5111439;28;20274;-85
2022/08/10 03:22:55;;;;;;;0.90;0.90;;;19.70;57.80;20.10;97181.00;;;;5104117;28;20195;-85
2022/08/10 03:25:26;;;;;;;1.83;1.07;;;19.70;57.80;20.10;97178.00;;;;5106245;28;20249;-85
2022/08/10 03:27:54;;;;;;;2.13;1.20;;;19.70;58.00;20.10;97175.00;;;;5109212;28;20297;-85
2022/08/10 03:30:22;;;;;;;1.20;1.10;;;19.70;58.00;20.10;97169.00;;;;5107670;28;20274;-85
2022/08/10 03:32:51;;;;;;;1.90;1.50;;;19.70;57.90;20.10;97172.00;;;;5111521;28;20732;-85
2022/08/10 03:35:20;;;;;;;1.40;1.30;;;19.70;58.00;20.10;97167.00;;;;5112980;28;20237;-85
2022/08/10 03:37:48;;;;;;;1.47;1.33;;;19.70;58.00;20.10;97171.00;;;;5116130;28;20297;-85
2022/08/10 03:40:15;;;;;;;1.00;0.93;;;19.70;58.00;20.10;97175.00;;;;5111476;28;20566;-85
2022/08/10 03:42:46;;;;;;;1.50;1.20;;;19.70;58.00;20.10;97171.00;;;;5105320;28;20738;-85
2022/08/10 03:45:15;;;;;;;1.53;1.40;;;19.70;58.10;20.10;97174.00;;;;5115713;28;20247;-85
2022/08/10 03:47:45;;;;;;;1.13;1.00;;;19.70;58.20;20.10;97167.00;;;;5115821;28;20246;-85
2022/08/10 03:50:13;;;;;;;1.30;1.13;;;19.70;58.10;20.10;97178.00;;;;5111039;28;20218;-85
2022/08/10 03:52:42;;;;;;;1.17;1.17;;;19.70;58.20;20.10;97171.00;;;;5114193;28;20303;-85
2022/08/10 03:55:11;;;;;;;1.80;1.13;;;19.70;58.20;20.10;97175.00;;;;5114713;28;20562;-85
2022/08/10 03:57:39;;;;;;;1.43;1.07;;;19.70;58.10;20.00;97171.00;;;;5115976;28;20717;-85
2022/08/10 04:00:08;;;;;;;1.37;1.20;;;19.70;58.10;20.00;97172.00;;;;5112934;28;20214;-85
2022/08/10 04:02:37;;;;;;;1.03;1.03;;;19.60;58.10;20.00;97173.00;;;;5110850;28;20230;-86
2022/08/10 04:05:05;;;;;;;2.33;1.20;;;19.60;58.20;20.00;97183.00;;;;5112535;28;20226;-85
2022/08/10 04:07:34;;;;;;;2.43;1.43;;;19.60;58.20;20.00;97180.00;;;;5114350;28;20219;-85
2022/08/10 04:10:04;;;;;;;1.20;1.10;;;19.60;58.20;20.10;97184.00;;;;5115686;28;20191;-85
2022/08/10 04:12:31;;;;;;;2.30;1.17;;;19.70;58.30;20.10;97179.00;;;;5115471;28;20321;-85
2022/08/10 04:14:58;;;;;;;1.43;1.00;;;19.70;58.30;20.10;97184.00;;;;5114975;28;20198;-85
2022/08/10 04:17:26;;;;;;;1.17;1.07;;;19.70;58.30;20.10;97183.00;;;;5116352;28;20293;-85
2022/08/10 04:19:57;;;;;;;1.07;1.00;;;19.70;58.30;20.10;97182.00;;;;5115338;28;20660;-85
2022/08/10 04:22:27;;;;;;;1.07;1.07;;;19.70;58.30;20.10;97182.00;;;;5113625;28;20664;-84
2022/08/10 04:25:03;;;;;;;1.20;1.10;;;19.70;58.30;20.10;97183.00;;;;5110416;28;20228;-84
2022/08/10 04:27:32;;;;;;;0.97;0.97;;;19.70;58.40;20.10;97188.00;;;;5112506;28;20295;-84
2022/08/10 04:29:59;;;;;;;1.37;1.10;;;19.70;58.40;20.10;97187.00;;;;5115567;28;20286;-87
2022/08/10 04:32:30;;;;;;;1.40;1.30;;;19.70;58.40;20.10;97183.00;;;;5117250;27;20271;-85
2022/08/10 04:34:59;;;;;;;1.00;1.00;;;19.70;58.40;20.10;97183.00;;;;5107892;28;20245;-84
2022/08/10 04:37:27;;;;;;;1.10;1.00;;;19.70;58.40;20.10;97186.00;;;;5115528;28;20210;-85
2022/08/10 04:39:55;;;;;;;0.93;0.93;;;19.70;58.40;20.20;97181.00;;;;5110324;28;20199;-85
2022/08/10 04:42:23;;;;;;;1.03;0.93;;;19.70;58.50;20.20;97181.00;;;;5114541;28;20557;-84
2022/08/10 04:44:52;;;;;;;1.10;1.00;;;19.70;58.40;20.20;97182.00;;;;5115166;28;20255;-85
2022/08/10 04:47:19;;;;;;;1.37;1.27;;;19.70;58.40;20.20;97183.00;;;;5113852;28;20253;-84
2022/08/10 04:49:46;;;;;;;1.30;1.20;;;19.70;58.50;20.20;97196.00;;;;5115422;28;20226;-85
2022/08/10 04:52:13;;;;;;;1.23;1.13;;;19.80;58.60;20.20;97196.00;;;;5115057;28;20254;-84
2022/08/10 04:54:40;;;;;;;1.27;1.10;;;19.80;58.60;20.20;97199.00;;;;5115121;28;20195;-84
2022/08/10 04:57:08;;;;;;;2.13;1.10;;;19.80;58.60;20.20;97202.00;;;;5114714;28;20210;-84
2022/08/10 04:59:35;;;;;;;1.40;1.20;;;19.80;58.50;20.30;97198.00;;;;5115270;28;20226;-85
2022/08/10 05:02:04;;;;;;;1.87;1.10;;;19.80;58.50;20.30;97207.00;;;;5115216;28;20253;-84
2022/08/10 05:04:31;;;;;;;1.87;0.90;;;19.80;58.60;20.30;97199.00;;;;5114630;28;20702;-85
2022/08/10 05:06:58;;;;;;;1.60;1.50;;;19.90;58.60;20.30;97203.00;;;;5114748;28;20743;-84
2022/08/10 05:09:25;;;;;;;1.87;1.17;;;19.90;58.70;20.30;97197.00;;;;5115113;28;20274;-84
2022/08/10 05:11:52;;;;;;;0.87;0.87;;;19.90;58.60;20.40;97203.00;;;;5114619;28;20802;-84
2022/08/10 05:14:19;;;;;;;1.90;1.10;;;19.90;58.50;20.40;97200.00;;;;5117594;27;20224;-84
2022/08/10 05:16:46;;;;;;;1.33;1.20;;;19.90;58.50;20.40;97206.00;;;;5126130;27;20275;-84
2022/08/10 05:19:15;;;;;;;0.90;0.90;;;19.90;58.60;20.40;97199.00;;;;5124060;27;20661;-84
2022/08/10 05:21:43;;;;;;;1.30;1.20;;;19.90;58.60;20.50;97196.00;;;;5112929;28;20239;-84
2022/08/10 05:24:11;;;;;;;1.23;1.13;;;20.00;58.60;20.50;97207.00;;;;5095524;28;20226;-84
2022/08/10 05:26:38;;;;;;;1.07;1.07;;;20.00;58.60;20.50;97208.00;;;;5114153;27;20268;-85
2022/08/10 05:29:05;;;;;;;1.10;1.10;;;20.10;58.60;20.50;97202.00;;;;5116834;27;20277;-84
2022/08/10 05:31:32;;;;;;;1.17;0.90;;;20.10;58.70;20.60;97207.00;;;;5113483;27;20202;-84
2022/08/10 05:33:59;;;;;;;1.00;1.00;;;20.10;58.80;20.60;97205.00;;;;5110103;27;20609;-85
2022/08/10 05:36:29;;;;;;;1.10;0.97;;;20.10;58.70;20.60;97211.00;;;;5117195;27;20564;-84
2022/08/10 05:38:57;;;;;;;1.17;1.17;;;20.10;58.80;20.70;97216.00;;;;5114352;28;20247;-84
2022/08/10 05:41:27;;;;;;;1.13;1.03;;;20.20;58.70;20.70;97211.00;;;;5114053;28;20226;-87
2022/08/10 05:43:55;;;;;;;1.43;1.20;;;20.20;58.60;20.70;97211.00;;;;5114163;28;20281;-84
2022/08/10 05:46:22;;;;;;;1.33;1.23;;;20.20;58.50;20.80;97216.00;;;;5113894;28;20218;-87
2022/08/10 05:48:49;;;;;;;1.13;1.10;;;20.30;58.60;20.80;97220.00;;;;5114404;28;20230;-87
2022/08/10 05:51:17;;;;;;;1.47;1.07;;;20.30;58.60;20.80;97221.00;;;;5114415;28;20283;-87
2022/08/10 05:53:46;;;;;;;1.30;1.20;;;20.30;58.60;20.90;97222.00;;;;5114020;28;20250;-85
2022/08/10 05:56:13;;;;;;;1.20;1.10;;;20.40;58.80;20.90;97210.00;;;;5113266;28;20593;-84
2022/08/10 05:58:41;;;;;;;1.73;1.00;;;20.40;58.80;21.00;97212.00;;;;5113287;28;20226;-85
2022/08/10 06:01:14;;;;;;;1.20;1.10;;;20.50;58.80;21.00;97221.00;;;;5113928;28;20237;-85
2022/08/10 06:03:51;;;;;;;2.00;1.20;;;20.50;58.60;21.10;97215.00;;;;5133894;27;20541;-85
2022/08/10 06:06:21;;;;;;;1.10;1.10;;;20.50;58.50;21.10;97223.00;;;;5124920;27;20455;-85
2022/08/10 06:08:51;;;;;;;2.00;1.30;;;20.60;58.60;21.20;97217.00;;;;5125351;27;20209;-85
2022/08/10 06:11:22;;;;;;;1.10;1.00;;;20.60;58.70;21.30;97214.00;;;;5134273;27;20229;-86
2022/08/10 06:16:39;;;;;;;1.83;1.10;;;20.70;58.70;21.40;97208.00;;;;5133972;27;20221;-88
2022/08/10 06:19:07;;;;;;;1.10;0.90;;;20.80;58.60;21.50;97205.00;;;;5133879;27;20223;-85
2022/08/10 06:21:35;;;;;;;1.20;1.10;;;20.80;58.60;21.50;97207.00;;;;5132815;27;20277;-85
2022/08/10 06:24:08;;;;;;;1.20;1.10;;;20.90;58.70;21.60;97205.00;;;;5113217;28;20648;-86
2022/08/10 06:26:35;;;;;;;1.93;0.87;;;21.00;58.80;21.60;97211.00;;;;5113228;28;20258;-85
2022/08/10 06:29:09;;;;;;;1.10;1.10;;;21.00;58.70;21.70;97217.00;;;;5113383;28;20277;-86
2022/08/10 06:31:42;;;;;;;1.00;1.00;;;21.10;58.80;21.80;97218.00;;;;5112728;28;20178;-86
2022/08/10 06:34:12;;;;;;;0.90;0.90;;;21.10;58.60;21.80;97213.00;;;;5111107;28;20215;-86
2022/08/10 06:36:44;;;;;;;1.20;1.10;;;21.20;58.80;21.90;97210.00;;;;5092914;28;20244;-87
2022/08/10 06:39:13;;;;;;;2.40;1.13;;;21.20;58.70;21.90;97216.00;;;;5093162;28;20293;-86
2022/08/10 06:41:48;;;;;;;1.00;0.80;;;21.30;58.60;22.00;97218.00;;;;5093251;28;20285;-86
2022/08/10 06:44:32;;;;;;;2.70;1.07;;;21.40;58.40;22.00;97209.00;;;;5093024;28;20616;-85
2022/08/10 06:47:02;;;;;;;1.57;1.07;;;21.40;58.40;22.10;97215.00;;;;5092329;28;20301;-85
2022/08/10 06:49:32;;;;;;;0.90;0.90;;;21.40;58.30;22.20;97210.00;;;;5092472;28;20250;-85
2022/08/10 06:52:02;;;;;;;1.50;1.40;;;21.50;58.20;22.20;97220.00;;;;5102949;28;20267;-85
2022/08/10 06:54:33;;;;;;;1.50;1.40;;;21.60;58.20;22.30;97222.00;;;;5112662;28;20319;-86
2022/08/10 06:57:02;;;;;;;2.37;1.07;;;21.70;58.20;22.40;97222.00;;;;5112375;28;20254;-85
2022/08/10 06:59:38;;;;;;;1.07;1.03;;;21.70;58.10;22.50;97215.00;;;;5112892;28;20683;-86
2022/08/10 07:02:09;;;;;;;1.10;1.10;;;21.80;58.10;22.60;97214.00;;;;5112826;28;20213;-86
2022/08/10 07:04:44;;;;;;;1.10;1.00;;;21.90;58.10;22.70;97214.00;;;;5113438;28;20228;-87
2022/08/10 07:07:20;;;;;;;1.27;0.87;;;22.00;58.10;22.80;97212.00;;;;5113458;28;20216;-87
2022/08/10 07:09:51;;;;;;;1.73;1.03;;;22.10;58.20;22.90;97213.00;;;;5112477;28;20247;-87
2022/08/10 07:12:21;;;;;;;1.27;1.17;;;22.20;58.30;23.00;97216.00;;;;5104834;28;20771;-88
2022/08/10 07:14:52;;;;;;;1.43;1.00;;;22.30;58.30;23.20;97212.00;;;;5113089;28;20603;-88
2022/08/10 07:17:22;;;;;;;1.70;0.77;;;22.40;58.20;23.30;97205.00;;;;5113314;28;20297;-88
2022/08/10 07:19:55;;;;;;;1.10;1.00;;;22.50;58.20;23.50;97203.00;;;;5113424;28;20707;-89
2022/08/10 07:22:27;;;;;;;1.27;1.10;;;22.60;58.20;23.70;97208.00;;;;5105314;28;20245;-87
2022/08/10 07:24:58;;;;;;;0.80;0.80;;;22.80;58.00;23.80;97208.00;;;;5092690;28;20661;-87
2022/08/10 07:27:26;;;;;;;1.00;1.00;;;22.90;57.80;24.00;97212.00;;;;5103949;28;20222;-86
2022/08/10 07:29:56;;;;;;;1.30;1.00;;;23.10;57.90;24.20;97212.00;;;;5110518;28;20229;-87
2022/08/10 07:32:25;;;;;;;1.03;0.90;;;23.30;57.80;24.40;97208.00;;;;5111912;28;20278;-87
2022/08/10 07:34:56;;;;;;;0.80;0.70;;;23.40;57.60;24.60;97206.00;;;;5102920;28;20293;-84
2022/08/10 07:37:26;;;;;;;0.80;0.80;;;23.60;57.30;24.80;97196.00;;;;5112075;28;20694;-85
2022/08/10 07:39:57;;;;;;;2.10;1.10;;;23.80;57.10;25.00;97206.00;;;;5111859;28;20249;-85
2022/08/10 07:42:28;;;;;;;2.10;0.80;;;23.90;56.80;25.20;97205.00;;;;5111652;28;20208;-85
2022/08/10 07:44:56;;;;;;;1.80;0.70;;;24.10;56.50;25.40;97207.00;;;;5111584;28;20677;-87
2022/08/10 07:47:30;;;;;;;0.70;0.70;;;24.30;56.10;25.60;97209.00;;;;5111943;28;20303;-85
2022/08/10 07:50:03;;;;;;;0.80;0.80;;;24.40;55.90;25.80;97210.00;;;;5111841;28;20276;-85
2022/08/10 07:52:36;;;;;;;0.80;0.70;;;24.60;55.40;26.00;97204.00;;;;5106407;28;20305;-85
2022/08/10 07:55:12;;;;;;;1.50;1.00;;;24.80;55.20;26.20;97200.00;;;;5095103;28;20329;-85
2022/08/10 07:57:42;;;;;;;0.80;0.60;;;25.00;54.80;26.40;97203.00;;;;5111421;28;20657;-84
2022/08/10 08:00:11;;;;;;;0.80;0.80;;;25.20;54.80;26.60;97207.00;;;;5111506;28;20282;-84
2022/08/10 08:02:48;;;;;;;1.13;0.60;;;25.40;54.30;26.80;97211.00;;;;5109747;28;20252;-86
2022/08/10 08:05:17;;;;;;;0.43;0.43;;;25.50;54.00;26.90;97208.00;;;;5111180;28;20263;-85
2022/08/10 08:07:46;;;;;;;0.70;0.70;;;25.70;53.80;27.10;97205.00;;;;5112159;28;20321;-85
2022/08/10 08:10:17;;;;;;;0.70;0.70;;;25.90;53.30;27.30;97203.00;;;;5106151;28;20191;-87
2022/08/10 08:12:46;;;;;;;3.77;0.83;;;26.10;52.80;27.50;97206.00;;;;5107989;28;20218;-85
2022/08/10 08:15:19;;;;;;;1.30;0.67;;;26.30;52.70;27.70;97212.00;;;;5103888;28;20290;-86
2022/08/10 08:17:49;;;;;;;1.83;1.03;;;26.40;52.50;27.90;97208.00;;;;5112311;28;20256;-87
2022/08/10 08:20:17;;;;;;;1.10;0.87;;;26.60;52.20;28.10;97219.00;;;;5112026;28;20226;-85
2022/08/10 08:22:46;;;;;;;1.00;1.00;;;26.80;51.80;28.20;97217.00;;;;5105124;28;20286;-85
2022/08/10 08:25:17;;;;;;;0.77;0.70;;;27.00;51.50;28.40;97213.00;;;;5085103;27;20253;-85
2022/08/10 08:27:51;;;;;;;1.37;0.60;;;27.10;50.90;28.60;97225.00;;;;5113617;27;20218;-85
2022/08/10 08:30:20;;;;;;;1.20;0.70;;;27.30;50.90;28.80;97229.00;;;;5127599;27;20202;-85
2022/08/10 08:32:48;;;;;;;0.90;0.60;;;27.50;50.90;29.00;97221.00;;;;5136240;27;20582;-85
2022/08/10 08:35:19;;;;;;;0.90;0.80;;;27.60;50.40;29.20;97221.00;;;;5135478;27;20282;-85
2022/08/10 08:37:51;;;;;;;0.80;0.80;;;27.80;50.20;29.30;97220.00;;;;5135929;27;20252;-85
2022/08/10 08:40:26;;;;;;;1.10;0.77;;;28.00;50.20;29.50;97218.00;;;;5135764;27;20284;-85
2022/08/10 08:43:40;;;;;;;0.70;0.70;;;28.20;49.80;29.80;97228.00;;;;5094628;28;20207;-85
2022/08/10 08:46:33;;;;;;;3.63;0.60;;;28.40;48.70;29.90;97234.00;;;;5094460;28;20226;-86
2022/08/10 08:49:27;;;;;;;1.35;0.70;;;28.60;48.00;30.10;97240.00;;;;5094806;28;20241;-87
2022/08/10 08:52:16;;;;;;;0.68;0.57;;;28.70;47.90;30.20;97239.00;;;;5095166;28;20271;-87
2022/08/10 08:54:57;;;;;;;3.13;0.77;;;28.90;47.40;30.40;97237.00;;;;5094855;28;20219;-86
2022/08/10 08:57:43;;;;;;;1.52;0.43;;;29.00;46.90;30.50;97235.00;;;;5107132;28;20222;-87
2022/08/10 09:00:18;;;;;;;0.40;0.40;;;29.20;46.80;30.70;97232.00;;;;5115211;28;20187;-87
2022/08/10 09:03:21;;;;;;;0.50;0.50;;;29.30;46.80;30.90;97234.00;;;;5115190;28;20606;-87
2022/08/10 09:06:05;;;;;;;0.82;0.57;;;29.50;46.40;31.10;97235.00;;;;5111131;28;20228;-88
2022/08/10 09:09:09;;;;;;;0.73;0.60;;;29.70;46.50;31.30;97225.00;;;;5115184;28;20175;-87
2022/08/10 09:11:54;;;;;;;0.75;0.60;;;29.80;46.00;31.60;97236.00;;;;5111611;28;20237;-87
2022/08/10 09:14:41;;;;;;;0.50;0.50;;;30.00;45.80;31.80;97233.00;;;;5114239;28;20294;-87
2022/08/10 09:17:20;;;;;;;0.45;0.45;;;30.20;45.40;31.90;97219.00;;;;5114855;28;20609;-87
2022/08/10 09:19:58;;;;;;;1.30;0.60;;;30.40;45.10;32.10;97231.00;;;;5114440;28;20230;-87
2022/08/10 09:22:33;;;;;;;1.95;0.40;;;30.50;45.30;32.30;97233.00;;;;5111801;28;20191;-87
2022/08/10 09:25:14;;;;;;;0.68;0.40;;;30.60;44.50;32.50;97236.00;;;;5111530;28;20615;-86
2022/08/10 09:27:45;;;;;;;0.50;0.50;;;30.80;44.60;32.70;97239.00;;;;5116788;27;20306;-86
2022/08/10 09:30:19;;;;;;;0.60;0.60;;;31.00;44.20;32.90;97249.00;;;;5106308;28;20194;-86
2022/08/10 09:32:51;;;;;;;1.08;0.70;;;31.10;43.70;33.00;97243.00;;;;5119781;27;20240;-86
2022/08/10 09:35:27;;;;;;;0.95;0.60;;;31.40;43.80;33.20;97241.00;;;;5124296;27;20279;-88
2022/08/10 09:38:17;;;;;;;1.10;0.60;;;31.50;43.10;33.40;97247.00;;;;5121141;27;20265;-86
2022/08/10 09:40:54;;;;;;;0.90;0.90;;;31.70;42.50;33.60;97247.00;;;;5114568;27;20236;-86
2022/08/10 09:43:39;;;;;;;0.75;0.50;;;31.90;42.90;33.80;97241.00;;;;5113575;27;20230;-86
2022/08/10 09:46:26;;;;;;;0.90;0.60;;;32.00;42.60;34.00;97243.00;;;;5110351;27;20579;-85
2022/08/10 09:49:05;;;;;;;0.60;0.60;;;32.20;42.20;34.10;97234.00;;;;5107246;28;20198;-86
2022/08/10 09:51:46;;;;;;;0.50;0.50;;;32.30;42.00;34.40;97242.00;;;;5109840;28;20209;-86
2022/08/10 09:54:29;;;;;;;1.00;0.60;;;32.50;41.60;34.60;97248.00;;;;5119390;27;20215;-86
2022/08/10 09:57:15;;;;;;;0.77;0.50;;;32.60;41.20;34.80;97242.00;;;;5104941;27;20243;-86
2022/08/10 09:59:55;;;;;;;0.60;0.60;;;32.80;40.70;35.10;97245.00;;;;5123350;27;20200;-86
2022/08/10 10:02:35;;;;;;;0.50;0.40;;;33.00;40.90;35.30;97238.00;;;;5116568;27;20198;-87
2022/08/10 10:05:27;;;;;;;1.38;0.65;;;33.10;40.80;35.50;97235.00;;;;5110765;27;20213;-86
2022/08/10 10:08:11;;;;;;;1.17;0.45;;;33.30;40.10;35.80;97242.00;;;;5116627;27;20222;-88
2022/08/10 10:10:53;;;;;;;0.50;0.50;;;33.50;40.40;35.90;97239.00;;;;5111785;27;20202;-85
2022/08/10 10:13:36;;;;;;;1.27;0.50;;;33.70;39.70;36.00;97231.00;;;;5119380;27;20244;-86
2022/08/10 10:16:25;;;;;;;0.40;0.40;;;33.80;39.80;36.00;97233.00;;;;5124173;22;20251;-84
2022/08/10 10:19:16;;;;;;;2.25;0.60;;;33.90;38.80;35.90;97237.00;;;;5106271;28;20218;-85
2022/08/10 10:21:51;;;;;;;0.52;0.52;;;34.00;38.00;35.70;97234.00;;;;5098112;28;20195;-84
2022/08/10 10:24:33;;;;;;;0.50;0.50;;;34.00;38.20;35.50;97229.00;;;;5101481;28;20187;-84
2022/08/10 10:27:12;;;;;;;0.50;0.50;;;34.00;38.10;35.20;97232.00;;;;5095415;28;20206;-83
2022/08/10 10:29:56;;;;;;;5.30;4.80;;;33.90;38.10;35.10;97226.00;;;;5093910;28;20256;-83
2022/08/10 10:32:50;;;;;;;5.25;3.67;;;33.80;37.90;34.90;97222.00;;;;5090425;28;20196;-85
2022/08/10 10:35:24;;;;;;;1.75;1.30;;;33.70;37.90;34.80;97227.00;;;;5092627;28;20643;-85
2022/08/10 10:37:55;;;;;;;1.35;0.82;;;33.70;37.70;34.80;97222.00;;;;5091670;28;20198;-86
2022/08/10 10:40:29;;;;;;;1.85;1.70;;;33.60;38.30;34.80;97214.00;;;;5093756;28;20203;-84
2022/08/10 10:43:11;;;;;;;2.03;1.83;;;33.60;37.80;34.80;97213.00;;;;5098622;28;20214;-84
2022/08/10 10:46:00;;;;;;;2.05;1.10;;;33.60;37.60;34.90;97213.00;;;;5082191;28;20191;-84
2022/08/10 10:48:40;;;;;;;0.80;0.77;;;33.70;37.70;34.90;97213.00;;;;5094753;28;20218;-85
2022/08/10 10:51:21;;;;;;;1.15;0.60;;;33.70;37.00;34.90;97212.00;;;;5090616;28;20198;-85
2022/08/10 10:54:01;;;;;;;1.25;1.17;;;33.80;37.00;34.90;97208.00;;;;5092566;28;20255;-83
2022/08/10 10:56:39;;;;;;;0.70;0.70;;;33.80;37.40;34.90;97208.00;;;;5088972;28;20191;-84
2022/08/10 10:59:24;;;;;;;1.48;0.70;;;33.80;36.90;34.90;97193.00;;;;5096147;28;20250;-83
2022/08/10 11:02:06;;;;;;;1.30;0.95;;;33.90;36.00;34.70;97206.00;;;;5098366;28;20205;-86
2022/08/10 11:04:45;;;;;;;1.80;0.68;;;33.80;36.30;34.60;97200.00;;;;5095977;28;20698;-83
2022/08/10 11:07:23;;;;;;;2.13;1.50;;;33.80;36.10;34.50;97198.00;;;;5091057;28;20191;-83
2022/08/10 11:10:01;;;;;;;2.20;1.40;;;33.70;35.70;34.30;97201.00;;;;5083169;28;20215;-84
2022/08/10 11:12:38;;;;;;;1.67;1.48;;;33.60;35.90;34.10;97204.00;;;;5087595;28;20241;-84
2022/08/10 11:15:15;;;;;;;1.63;0.90;;;33.50;36.20;34.00;97206.00;;;;5118125;22;20569;-83
2022/08/10 11:17:52;;;;;;;1.52;1.42;;;33.30;35.90;33.80;97201.00;;;;5112290;28;20205;-83
2022/08/10 11:20:37;;;;;;;1.60;1.08;;;33.20;36.30;33.60;97197.00;;;;5088590;28;20271;-83
2022/08/10 11:23:25;;;;;;;1.40;1.00;;;33.10;36.90;33.50;97201.00;;;;5077856;28;20191;-83
2022/08/10 11:26:09;;;;;;;1.38;0.90;;;32.90;35.90;33.40;97204.00;;;;5089753;28;20244;-83